sensor_id;sensor_type;location;lat;lon;timestamp;P1;durP1;ratioP1;P2;durP2;ratioP2
77453;SDS011;66538;53.150;18.160;2023-12-28T00:01:45;19.20;;;9.60;;
77453;SDS011;66538;53.150;18.160;2023-12-28T00:04:12;15.70;;;7.00;;
77453;SDS011;66538;53.150;18.160;2023-12-28T00:06:38;21.50;;;10.70;;
77453;SDS011;66538;53.150;18.160;2023-12-28T00:09:05;21.80;;;11.10;;
77453;SDS011;66538;53.150;18.160;2023-12-28T00:11:32;23.30;;;11.90;;
77453;SDS011;66538;53.150;18.160;2023-12-28T00:13:59;28.30;;;13.30;;
77453;SDS011;66538;53.150;18.160;2023-12-28T00:16:25;25.30;;;9.50;;
77453;SDS011;66538;53.150;18.160;2023-12-28T00:18:52;25.20;;;10.50;;
77453;SDS011;66538;53.150;18.160;2023-12-28T00:21:19;16.50;;;7.50;;
77453;SDS011;66538;53.150;18.160;2023-12-28T00:23:45;19.80;;;10.20;;
77453;SDS011;66538;53.150;18.160;2023-12-28T00:26:12;15.30;;;7.10;;
77453;SDS011;66538;53.150;18.160;2023-12-28T00:28:41;16.50;;;8.40;;
77453;SDS011;66538;53.150;18.160;2023-12-28T00:31:09;20.60;;;8.50;;
77453;SDS011;66538;53.150;18.160;2023-12-28T00:33:35;18.50;;;8.70;;
77453;SDS011;66538;53.150;18.160;2023-12-28T00:36:02;22.50;;;9.90;;
77453;SDS011;66538;53.150;18.160;2023-12-28T00:38:30;17.20;;;7.70;;
77453;SDS011;66538;53.150;18.160;2023-12-28T00:40:57;19.10;;;9.90;;
77453;SDS011;66538;53.150;18.160;2023-12-28T00:43:24;21.30;;;10.10;;
77453;SDS011;66538;53.150;18.160;2023-12-28T00:45:50;19.60;;;9.70;;
77453;SDS011;66538;53.150;18.160;2023-12-28T00:48:17;17.50;;;8.10;;
77453;SDS011;66538;53.150;18.160;2023-12-28T00:50:43;22.60;;;9.70;;
77453;SDS011;66538;53.150;18.160;2023-12-28T00:53:10;17.90;;;7.70;;
77453;SDS011;66538;53.150;18.160;2023-12-28T00:55:37;14.70;;;6.90;;
77453;SDS011;66538;53.150;18.160;2023-12-28T00:58:03;14.10;;;7.30;;
77453;SDS011;66538;53.150;18.160;2023-12-28T01:00:30;20.10;;;8.70;;
77453;SDS011;66538;53.150;18.160;2023-12-28T01:02:56;20.20;;;8.30;;
77453;SDS011;66538;53.150;18.160;2023-12-28T01:05:23;21.50;;;9.50;;
77453;SDS011;66538;53.150;18.160;2023-12-28T01:07:52;20.90;;;8.90;;
77453;SDS011;66538;53.150;18.160;2023-12-28T01:10:19;20.80;;;10.00;;
77453;SDS011;66538;53.150;18.160;2023-12-28T01:12:45;19.40;;;8.80;;
77453;SDS011;66538;53.150;18.160;2023-12-28T01:15:12;21.80;;;9.40;;
77453;SDS011;66538;53.150;18.160;2023-12-28T01:17:39;19.10;;;8.60;;
77453;SDS011;66538;53.150;18.160;2023-12-28T01:20:05;18.10;;;8.40;;
77453;SDS011;66538;53.150;18.160;2023-12-28T01:22:32;17.80;;;8.00;;
77453;SDS011;66538;53.150;18.160;2023-12-28T01:24:59;26.60;;;9.30;;
77453;SDS011;66538;53.150;18.160;2023-12-28T01:27:26;29.30;;;10.60;;
77453;SDS011;66538;53.150;18.160;2023-12-28T01:29:52;23.10;;;10.40;;
77453;SDS011;66538;53.150;18.160;2023-12-28T01:32:19;25.00;;;8.80;;
77453;SDS011;66538;53.150;18.160;2023-12-28T01:34:45;22.00;;;10.00;;
77453;SDS011;66538;53.150;18.160;2023-12-28T01:37:12;19.70;;;8.20;;
77453;SDS011;66538;53.150;18.160;2023-12-28T01:39:39;19.90;;;8.40;;
77453;SDS011;66538;53.150;18.160;2023-12-28T01:42:06;24.40;;;10.50;;
77453;SDS011;66538;53.150;18.160;2023-12-28T01:44:32;22.20;;;10.00;;
77453;SDS011;66538;53.150;18.160;2023-12-28T01:46:59;19.00;;;8.90;;
77453;SDS011;66538;53.150;18.160;2023-12-28T01:49:25;18.10;;;8.20;;
77453;SDS011;66538;53.150;18.160;2023-12-28T01:51:52;20.30;;;8.00;;
77453;SDS011;66538;53.150;18.160;2023-12-28T01:54:19;17.50;;;8.20;;
77453;SDS011;66538;53.150;18.160;2023-12-28T01:56:47;16.10;;;6.70;;
77453;SDS011;66538;53.150;18.160;2023-12-28T01:59:15;19.40;;;8.50;;
77453;SDS011;66538;53.150;18.160;2023-12-28T02:01:42;16.50;;;7.80;;
77453;SDS011;66538;53.150;18.160;2023-12-28T02:04:09;16.50;;;7.40;;
77453;SDS011;66538;53.150;18.160;2023-12-28T02:06:36;15.60;;;6.80;;
77453;SDS011;66538;53.150;18.160;2023-12-28T02:09:02;17.30;;;8.30;;
77453;SDS011;66538;53.150;18.160;2023-12-28T02:11:29;19.80;;;7.40;;
77453;SDS011;66538;53.150;18.160;2023-12-28T02:13:56;18.50;;;7.80;;
77453;SDS011;66538;53.150;18.160;2023-12-28T02:16:28;20.00;;;8.60;;
77453;SDS011;66538;53.150;18.160;2023-12-28T02:22:02;16.70;;;5.60;;
77453;SDS011;66538;53.150;18.160;2023-12-28T02:24:30;14.00;;;7.30;;
77453;SDS011;66538;53.150;18.160;2023-12-28T02:26:57;14.30;;;7.40;;
77453;SDS011;66538;53.150;18.160;2023-12-28T02:29:23;12.70;;;6.50;;
77453;SDS011;66538;53.150;18.160;2023-12-28T02:31:51;21.30;;;9.40;;
77453;SDS011;66538;53.150;18.160;2023-12-28T02:34:30;15.20;;;7.90;;
77453;SDS011;66538;53.150;18.160;2023-12-28T02:37:03;17.70;;;7.60;;
77453;SDS011;66538;53.150;18.160;2023-12-28T02:39:31;22.60;;;9.20;;
77453;SDS011;66538;53.150;18.160;2023-12-28T02:41:58;22.50;;;9.30;;
77453;SDS011;66538;53.150;18.160;2023-12-28T02:44:25;11.30;;;6.00;;
77453;SDS011;66538;53.150;18.160;2023-12-28T02:46:52;19.60;;;7.60;;
77453;SDS011;66538;53.150;18.160;2023-12-28T02:49:19;16.70;;;8.10;;
77453;SDS011;66538;53.150;18.160;2023-12-28T02:51:45;14.20;;;7.00;;
77453;SDS011;66538;53.150;18.160;2023-12-28T02:54:12;18.00;;;7.90;;
77453;SDS011;66538;53.150;18.160;2023-12-28T02:56:39;13.40;;;6.20;;
77453;SDS011;66538;53.150;18.160;2023-12-28T02:59:07;16.60;;;7.20;;
77453;SDS011;66538;53.150;18.160;2023-12-28T03:01:34;15.90;;;6.70;;
77453;SDS011;66538;53.150;18.160;2023-12-28T03:04:00;14.80;;;6.80;;
77453;SDS011;66538;53.150;18.160;2023-12-28T03:06:27;12.60;;;5.60;;
77453;SDS011;66538;53.150;18.160;2023-12-28T03:08:53;19.80;;;9.10;;
77453;SDS011;66538;53.150;18.160;2023-12-28T03:11:20;19.20;;;7.00;;
77453;SDS011;66538;53.150;18.160;2023-12-28T03:13:47;14.80;;;7.40;;
77453;SDS011;66538;53.150;18.160;2023-12-28T03:16:13;15.50;;;6.30;;
77453;SDS011;66538;53.150;18.160;2023-12-28T03:18:40;16.40;;;7.40;;
77453;SDS011;66538;53.150;18.160;2023-12-28T03:21:06;13.40;;;6.60;;
77453;SDS011;66538;53.150;18.160;2023-12-28T03:23:34;17.00;;;7.80;;
77453;SDS011;66538;53.150;18.160;2023-12-28T03:26:01;21.60;;;8.40;;
77453;SDS011;66538;53.150;18.160;2023-12-28T03:28:27;14.70;;;5.50;;
77453;SDS011;66538;53.150;18.160;2023-12-28T03:30:54;10.90;;;5.40;;
77453;SDS011;66538;53.150;18.160;2023-12-28T03:33:21;21.60;;;9.10;;
77453;SDS011;66538;53.150;18.160;2023-12-28T03:35:47;10.90;;;4.90;;
77453;SDS011;66538;53.150;18.160;2023-12-28T03:38:14;13.30;;;6.10;;
77453;SDS011;66538;53.150;18.160;2023-12-28T03:40:40;15.20;;;6.60;;
77453;SDS011;66538;53.150;18.160;2023-12-28T03:43:07;17.00;;;7.20;;
77453;SDS011;66538;53.150;18.160;2023-12-28T03:45:34;17.50;;;7.00;;
77453;SDS011;66538;53.150;18.160;2023-12-28T03:48:00;15.80;;;6.20;;
77453;SDS011;66538;53.150;18.160;2023-12-28T03:50:27;10.20;;;5.20;;
77453;SDS011;66538;53.150;18.160;2023-12-28T03:52:53;15.00;;;6.80;;
77453;SDS011;66538;53.150;18.160;2023-12-28T03:55:20;19.00;;;9.30;;
77453;SDS011;66538;53.150;18.160;2023-12-28T03:57:47;17.90;;;8.60;;
77453;SDS011;66538;53.150;18.160;2023-12-28T04:00:14;14.00;;;6.20;;
77453;SDS011;66538;53.150;18.160;2023-12-28T04:02:41;22.60;;;10.70;;
77453;SDS011;66538;53.150;18.160;2023-12-28T04:05:07;18.70;;;9.10;;
77453;SDS011;66538;53.150;18.160;2023-12-28T04:07:34;16.10;;;8.20;;
77453;SDS011;66538;53.150;18.160;2023-12-28T04:10:02;20.50;;;9.70;;
77453;SDS011;66538;53.150;18.160;2023-12-28T04:12:30;19.40;;;8.70;;
77453;SDS011;66538;53.150;18.160;2023-12-28T04:14:57;24.30;;;8.50;;
77453;SDS011;66538;53.150;18.160;2023-12-28T04:17:23;17.20;;;7.30;;
77453;SDS011;66538;53.150;18.160;2023-12-28T04:19:50;20.70;;;8.90;;
77453;SDS011;66538;53.150;18.160;2023-12-28T04:22:17;25.10;;;8.90;;
77453;SDS011;66538;53.150;18.160;2023-12-28T04:24:43;18.70;;;8.00;;
77453;SDS011;66538;53.150;18.160;2023-12-28T04:27:10;20.20;;;8.50;;
77453;SDS011;66538;53.150;18.160;2023-12-28T04:29:36;23.70;;;9.50;;
77453;SDS011;66538;53.150;18.160;2023-12-28T04:32:03;17.00;;;7.20;;
77453;SDS011;66538;53.150;18.160;2023-12-28T04:34:30;15.30;;;7.30;;
77453;SDS011;66538;53.150;18.160;2023-12-28T04:36:56;15.10;;;7.50;;
77453;SDS011;66538;53.150;18.160;2023-12-28T04:39:23;14.20;;;6.70;;
77453;SDS011;66538;53.150;18.160;2023-12-28T04:41:50;22.50;;;8.90;;
77453;SDS011;66538;53.150;18.160;2023-12-28T04:44:16;15.50;;;5.40;;
77453;SDS011;66538;53.150;18.160;2023-12-28T04:46:43;17.50;;;7.20;;
77453;SDS011;66538;53.150;18.160;2023-12-28T04:49:10;21.70;;;9.10;;
77453;SDS011;66538;53.150;18.160;2023-12-28T04:51:41;24.70;;;9.80;;
77453;SDS011;66538;53.150;18.160;2023-12-28T04:54:09;16.00;;;6.60;;
77453;SDS011;66538;53.150;18.160;2023-12-28T04:56:36;15.50;;;6.90;;
77453;SDS011;66538;53.150;18.160;2023-12-28T04:59:03;12.20;;;5.60;;
77453;SDS011;66538;53.150;18.160;2023-12-28T05:01:29;15.10;;;6.70;;
77453;SDS011;66538;53.150;18.160;2023-12-28T05:03:59;25.60;;;11.20;;
77453;SDS011;66538;53.150;18.160;2023-12-28T05:06:27;20.10;;;9.10;;
77453;SDS011;66538;53.150;18.160;2023-12-28T05:08:54;18.70;;;8.80;;
77453;SDS011;66538;53.150;18.160;2023-12-28T05:11:21;19.70;;;8.90;;
77453;SDS011;66538;53.150;18.160;2023-12-28T05:13:48;20.50;;;8.00;;
77453;SDS011;66538;53.150;18.160;2023-12-28T05:16:14;19.90;;;8.40;;
77453;SDS011;66538;53.150;18.160;2023-12-28T05:18:41;27.70;;;9.80;;
77453;SDS011;66538;53.150;18.160;2023-12-28T05:21:07;23.70;;;10.00;;
77453;SDS011;66538;53.150;18.160;2023-12-28T05:23:34;25.00;;;8.80;;
77453;SDS011;66538;53.150;18.160;2023-12-28T05:26:00;17.50;;;8.10;;
77453;SDS011;66538;53.150;18.160;2023-12-28T05:28:27;29.30;;;12.70;;
77453;SDS011;66538;53.150;18.160;2023-12-28T05:30:53;25.70;;;11.40;;
77453;SDS011;66538;53.150;18.160;2023-12-28T05:33:20;26.60;;;9.90;;
77453;SDS011;66538;53.150;18.160;2023-12-28T05:35:47;32.50;;;11.80;;
77453;SDS011;66538;53.150;18.160;2023-12-28T05:38:13;25.40;;;9.90;;
77453;SDS011;66538;53.150;18.160;2023-12-28T05:40:40;24.50;;;9.80;;
77453;SDS011;66538;53.150;18.160;2023-12-28T05:43:07;31.20;;;13.10;;
77453;SDS011;66538;53.150;18.160;2023-12-28T05:45:33;20.80;;;8.70;;
77453;SDS011;66538;53.150;18.160;2023-12-28T05:48:00;54.10;;;20.40;;
77453;SDS011;66538;53.150;18.160;2023-12-28T05:50:26;26.70;;;10.50;;
77453;SDS011;66538;53.150;18.160;2023-12-28T05:52:53;30.20;;;10.80;;
77453;SDS011;66538;53.150;18.160;2023-12-28T05:55:19;30.30;;;10.60;;
77453;SDS011;66538;53.150;18.160;2023-12-28T05:57:46;35.90;;;11.70;;
77453;SDS011;66538;53.150;18.160;2023-12-28T06:00:14;37.30;;;13.00;;
77453;SDS011;66538;53.150;18.160;2023-12-28T06:02:41;48.90;;;16.00;;
77453;SDS011;66538;53.150;18.160;2023-12-28T06:05:07;28.70;;;9.90;;
77453;SDS011;66538;53.150;18.160;2023-12-28T06:07:34;25.20;;;9.80;;
77453;SDS011;66538;53.150;18.160;2023-12-28T06:10:00;55.90;;;15.10;;
77453;SDS011;66538;53.150;18.160;2023-12-28T06:12:27;43.30;;;13.10;;
77453;SDS011;66538;53.150;18.160;2023-12-28T06:14:54;39.80;;;13.20;;
77453;SDS011;66538;53.150;18.160;2023-12-28T06:17:21;41.30;;;13.00;;
77453;SDS011;66538;53.150;18.160;2023-12-28T06:19:47;40.70;;;14.10;;
77453;SDS011;66538;53.150;18.160;2023-12-28T06:22:16;36.30;;;12.90;;
77453;SDS011;66538;53.150;18.160;2023-12-28T06:24:42;49.70;;;15.40;;
77453;SDS011;66538;53.150;18.160;2023-12-28T06:27:09;31.10;;;13.40;;
77453;SDS011;66538;53.150;18.160;2023-12-28T06:29:35;26.90;;;11.50;;
77453;SDS011;66538;53.150;18.160;2023-12-28T06:32:02;25.50;;;9.10;;
77453;SDS011;66538;53.150;18.160;2023-12-28T06:34:29;19.00;;;7.40;;
77453;SDS011;66538;53.150;18.160;2023-12-28T06:36:56;13.40;;;6.60;;
77453;SDS011;66538;53.150;18.160;2023-12-28T06:39:22;16.30;;;7.20;;
77453;SDS011;66538;53.150;18.160;2023-12-28T06:41:49;22.90;;;9.60;;
77453;SDS011;66538;53.150;18.160;2023-12-28T06:44:16;19.80;;;9.30;;
77453;SDS011;66538;53.150;18.160;2023-12-28T06:46:42;18.70;;;8.10;;
77453;SDS011;66538;53.150;18.160;2023-12-28T06:49:09;22.50;;;9.00;;
77453;SDS011;66538;53.150;18.160;2023-12-28T06:51:36;16.20;;;8.00;;
77453;SDS011;66538;53.150;18.160;2023-12-28T06:54:02;21.80;;;8.80;;
77453;SDS011;66538;53.150;18.160;2023-12-28T06:56:29;16.30;;;7.90;;
77453;SDS011;66538;53.150;18.160;2023-12-28T06:58:55;15.40;;;7.10;;
77453;SDS011;66538;53.150;18.160;2023-12-28T07:01:22;16.80;;;8.50;;
77453;SDS011;66538;53.150;18.160;2023-12-28T07:03:49;17.20;;;7.80;;
77453;SDS011;66538;53.150;18.160;2023-12-28T07:06:15;13.20;;;6.60;;
77453;SDS011;66538;53.150;18.160;2023-12-28T07:08:42;16.50;;;8.10;;
77453;SDS011;66538;53.150;18.160;2023-12-28T07:11:12;18.40;;;8.10;;
77453;SDS011;66538;53.150;18.160;2023-12-28T07:13:38;17.30;;;8.90;;
77453;SDS011;66538;53.150;18.160;2023-12-28T07:16:05;17.50;;;8.40;;
77453;SDS011;66538;53.150;18.160;2023-12-28T07:18:34;17.20;;;8.40;;
77453;SDS011;66538;53.150;18.160;2023-12-28T07:21:00;23.20;;;10.80;;
77453;SDS011;66538;53.150;18.160;2023-12-28T07:23:27;24.50;;;13.30;;
77453;SDS011;66538;53.150;18.160;2023-12-28T07:25:54;24.40;;;12.70;;
77453;SDS011;66538;53.150;18.160;2023-12-28T07:28:20;20.30;;;9.90;;
77453;SDS011;66538;53.150;18.160;2023-12-28T07:30:47;17.80;;;9.00;;
77453;SDS011;66538;53.150;18.160;2023-12-28T07:33:14;24.40;;;11.50;;
77453;SDS011;66538;53.150;18.160;2023-12-28T07:35:40;15.30;;;8.40;;
77453;SDS011;66538;53.150;18.160;2023-12-28T07:38:07;13.50;;;6.50;;
77453;SDS011;66538;53.150;18.160;2023-12-28T07:40:33;18.80;;;9.80;;
77453;SDS011;66538;53.150;18.160;2023-12-28T07:43:00;19.70;;;9.50;;
77453;SDS011;66538;53.150;18.160;2023-12-28T07:45:27;18.10;;;6.50;;
77453;SDS011;66538;53.150;18.160;2023-12-28T07:47:54;15.60;;;7.70;;
77453;SDS011;66538;53.150;18.160;2023-12-28T07:50:20;35.80;;;14.70;;
77453;SDS011;66538;53.150;18.160;2023-12-28T07:52:47;30.00;;;11.90;;
77453;SDS011;66538;53.150;18.160;2023-12-28T07:55:15;53.10;;;20.30;;
77453;SDS011;66538;53.150;18.160;2023-12-28T07:57:42;43.10;;;15.60;;
77453;SDS011;66538;53.150;18.160;2023-12-28T08:00:09;37.70;;;14.70;;
77453;SDS011;66538;53.150;18.160;2023-12-28T08:02:36;34.20;;;14.00;;
77453;SDS011;66538;53.150;18.160;2023-12-28T08:05:03;20.30;;;8.50;;
77453;SDS011;66538;53.150;18.160;2023-12-28T08:07:30;24.10;;;11.30;;
77453;SDS011;66538;53.150;18.160;2023-12-28T08:09:57;30.40;;;12.70;;
77453;SDS011;66538;53.150;18.160;2023-12-28T08:12:24;18.30;;;8.70;;
77453;SDS011;66538;53.150;18.160;2023-12-28T08:14:54;11.60;;;4.20;;
77453;SDS011;66538;53.150;18.160;2023-12-28T08:17:21;12.70;;;5.90;;
77453;SDS011;66538;53.150;18.160;2023-12-28T08:19:47;13.20;;;6.30;;
77453;SDS011;66538;53.150;18.160;2023-12-28T08:22:14;18.20;;;6.70;;
77453;SDS011;66538;53.150;18.160;2023-12-28T08:24:40;13.80;;;6.70;;
77453;SDS011;66538;53.150;18.160;2023-12-28T08:27:07;12.60;;;6.20;;
77453;SDS011;66538;53.150;18.160;2023-12-28T08:29:33;11.60;;;5.40;;
77453;SDS011;66538;53.150;18.160;2023-12-28T08:32:00;12.90;;;7.30;;
77453;SDS011;66538;53.150;18.160;2023-12-28T08:34:27;11.70;;;6.00;;
77453;SDS011;66538;53.150;18.160;2023-12-28T08:36:54;10.80;;;5.90;;
77453;SDS011;66538;53.150;18.160;2023-12-28T08:39:20;8.00;;;4.40;;
77453;SDS011;66538;53.150;18.160;2023-12-28T08:41:47;11.30;;;4.70;;
77453;SDS011;66538;53.150;18.160;2023-12-28T08:44:14;9.90;;;4.90;;
77453;SDS011;66538;53.150;18.160;2023-12-28T08:46:40;11.30;;;6.40;;
77453;SDS011;66538;53.150;18.160;2023-12-28T08:49:07;8.70;;;4.40;;
77453;SDS011;66538;53.150;18.160;2023-12-28T08:51:33;10.20;;;5.10;;
77453;SDS011;66538;53.150;18.160;2023-12-28T08:54:00;13.60;;;5.70;;
77453;SDS011;66538;53.150;18.160;2023-12-28T08:56:27;12.90;;;6.10;;
77453;SDS011;66538;53.150;18.160;2023-12-28T08:58:53;12.30;;;5.80;;
77453;SDS011;66538;53.150;18.160;2023-12-28T09:01:21;12.70;;;6.50;;
77453;SDS011;66538;53.150;18.160;2023-12-28T09:03:49;24.80;;;10.80;;
77453;SDS011;66538;53.150;18.160;2023-12-28T09:06:16;14.30;;;7.00;;
77453;SDS011;66538;53.150;18.160;2023-12-28T09:08:44;33.00;;;13.70;;
77453;SDS011;66538;53.150;18.160;2023-12-28T09:11:13;22.90;;;10.10;;
77453;SDS011;66538;53.150;18.160;2023-12-28T09:13:40;18.20;;;8.40;;
77453;SDS011;66538;53.150;18.160;2023-12-28T09:16:09;17.60;;;7.70;;
77453;SDS011;66538;53.150;18.160;2023-12-28T09:18:37;15.00;;;6.20;;
77453;SDS011;66538;53.150;18.160;2023-12-28T09:21:05;10.00;;;4.70;;
77453;SDS011;66538;53.150;18.160;2023-12-28T09:23:33;9.70;;;4.60;;
77453;SDS011;66538;53.150;18.160;2023-12-28T09:26:01;9.40;;;4.30;;
77453;SDS011;66538;53.150;18.160;2023-12-28T09:28:30;11.60;;;5.40;;
77453;SDS011;66538;53.150;18.160;2023-12-28T09:30:57;10.90;;;6.30;;
77453;SDS011;66538;53.150;18.160;2023-12-28T09:33:24;9.00;;;4.10;;
77453;SDS011;66538;53.150;18.160;2023-12-28T09:35:50;11.50;;;5.70;;
77453;SDS011;66538;53.150;18.160;2023-12-28T09:38:19;9.50;;;5.20;;
77453;SDS011;66538;53.150;18.160;2023-12-28T09:40:46;10.20;;;5.10;;
77453;SDS011;66538;53.150;18.160;2023-12-28T09:43:23;13.90;;;6.60;;
77453;SDS011;66538;53.150;18.160;2023-12-28T09:45:54;7.50;;;3.40;;
77453;SDS011;66538;53.150;18.160;2023-12-28T09:48:21;10.70;;;5.20;;
77453;SDS011;66538;53.150;18.160;2023-12-28T09:50:49;8.20;;;4.60;;
77453;SDS011;66538;53.150;18.160;2023-12-28T09:53:17;10.10;;;5.10;;
77453;SDS011;66538;53.150;18.160;2023-12-28T09:55:44;10.80;;;5.80;;
77453;SDS011;66538;53.150;18.160;2023-12-28T09:58:12;12.20;;;6.00;;
77453;SDS011;66538;53.150;18.160;2023-12-28T10:00:43;10.10;;;5.00;;
77453;SDS011;66538;53.150;18.160;2023-12-28T10:03:12;8.40;;;4.80;;
77453;SDS011;66538;53.150;18.160;2023-12-28T10:05:43;9.00;;;4.80;;
77453;SDS011;66538;53.150;18.160;2023-12-28T10:08:13;9.30;;;4.70;;
77453;SDS011;66538;53.150;18.160;2023-12-28T10:10:41;9.20;;;4.70;;
77453;SDS011;66538;53.150;18.160;2023-12-28T10:13:09;8.60;;;3.60;;
77453;SDS011;66538;53.150;18.160;2023-12-28T10:15:37;12.70;;;5.30;;
77453;SDS011;66538;53.150;18.160;2023-12-28T10:18:04;10.00;;;5.90;;
77453;SDS011;66538;53.150;18.160;2023-12-28T10:20:31;10.90;;;5.80;;
77453;SDS011;66538;53.150;18.160;2023-12-28T10:22:59;10.90;;;6.20;;
77453;SDS011;66538;53.150;18.160;2023-12-28T10:25:31;10.10;;;4.70;;
77453;SDS011;66538;53.150;18.160;2023-12-28T10:28:05;11.30;;;5.60;;
77453;SDS011;66538;53.150;18.160;2023-12-28T10:30:34;11.10;;;6.70;;
77453;SDS011;66538;53.150;18.160;2023-12-28T10:33:01;11.20;;;5.50;;
77453;SDS011;66538;53.150;18.160;2023-12-28T10:35:32;11.90;;;5.40;;
77453;SDS011;66538;53.150;18.160;2023-12-28T10:38:01;12.60;;;6.20;;
77453;SDS011;66538;53.150;18.160;2023-12-28T10:40:30;13.40;;;6.30;;
77453;SDS011;66538;53.150;18.160;2023-12-28T10:43:04;9.70;;;4.80;;
77453;SDS011;66538;53.150;18.160;2023-12-28T10:45:33;8.70;;;5.10;;
77453;SDS011;66538;53.150;18.160;2023-12-28T10:48:06;9.90;;;5.50;;
77453;SDS011;66538;53.150;18.160;2023-12-28T10:50:41;9.50;;;4.20;;
77453;SDS011;66538;53.150;18.160;2023-12-28T10:53:15;11.10;;;5.10;;
77453;SDS011;66538;53.150;18.160;2023-12-28T10:55:50;7.10;;;3.50;;
77453;SDS011;66538;53.150;18.160;2023-12-28T10:58:32;6.00;;;2.60;;
77453;SDS011;66538;53.150;18.160;2023-12-28T11:01:06;10.20;;;4.70;;
77453;SDS011;66538;53.150;18.160;2023-12-28T11:03:37;7.50;;;3.50;;
77453;SDS011;66538;53.150;18.160;2023-12-28T11:06:06;8.50;;;3.90;;
77453;SDS011;66538;53.150;18.160;2023-12-28T11:08:34;9.00;;;4.30;;
77453;SDS011;66538;53.150;18.160;2023-12-28T11:11:03;6.60;;;3.40;;
77453;SDS011;66538;53.150;18.160;2023-12-28T11:13:32;9.80;;;4.50;;
77453;SDS011;66538;53.150;18.160;2023-12-28T11:15:58;7.90;;;4.00;;
77453;SDS011;66538;53.150;18.160;2023-12-28T11:18:26;15.60;;;8.20;;
77453;SDS011;66538;53.150;18.160;2023-12-28T11:20:55;15.00;;;8.30;;
77453;SDS011;66538;53.150;18.160;2023-12-28T11:23:22;9.60;;;6.40;;
77453;SDS011;66538;53.150;18.160;2023-12-28T11:25:50;8.50;;;5.00;;
77453;SDS011;66538;53.150;18.160;2023-12-28T11:28:17;6.30;;;3.50;;
77453;SDS011;66538;53.150;18.160;2023-12-28T11:30:43;7.40;;;3.80;;
77453;SDS011;66538;53.150;18.160;2023-12-28T11:33:10;8.20;;;3.70;;
77453;SDS011;66538;53.150;18.160;2023-12-28T11:35:40;7.50;;;2.80;;
77453;SDS011;66538;53.150;18.160;2023-12-28T11:38:08;8.10;;;4.10;;
77453;SDS011;66538;53.150;18.160;2023-12-28T11:40:45;7.20;;;3.30;;
77453;SDS011;66538;53.150;18.160;2023-12-28T11:43:19;7.30;;;3.00;;
77453;SDS011;66538;53.150;18.160;2023-12-28T11:45:48;8.20;;;4.20;;
77453;SDS011;66538;53.150;18.160;2023-12-28T11:48:23;9.00;;;4.40;;
77453;SDS011;66538;53.150;18.160;2023-12-28T11:50:52;6.60;;;2.80;;
77453;SDS011;66538;53.150;18.160;2023-12-28T11:53:21;10.40;;;4.60;;
77453;SDS011;66538;53.150;18.160;2023-12-28T11:55:48;11.00;;;4.30;;
77453;SDS011;66538;53.150;18.160;2023-12-28T11:58:19;15.70;;;6.20;;
77453;SDS011;66538;53.150;18.160;2023-12-28T12:00:47;14.30;;;5.20;;
77453;SDS011;66538;53.150;18.160;2023-12-28T12:03:14;14.80;;;5.10;;
77453;SDS011;66538;53.150;18.160;2023-12-28T12:05:40;16.50;;;6.90;;
77453;SDS011;66538;53.150;18.160;2023-12-28T12:08:08;19.00;;;6.80;;
77453;SDS011;66538;53.150;18.160;2023-12-28T12:10:40;10.60;;;4.20;;
77453;SDS011;66538;53.150;18.160;2023-12-28T12:13:07;11.20;;;4.80;;
77453;SDS011;66538;53.150;18.160;2023-12-28T12:15:35;9.70;;;4.40;;
77453;SDS011;66538;53.150;18.160;2023-12-28T12:18:02;16.50;;;5.80;;
77453;SDS011;66538;53.150;18.160;2023-12-28T12:20:30;10.50;;;4.50;;
77453;SDS011;66538;53.150;18.160;2023-12-28T12:22:59;14.20;;;5.30;;
77453;SDS011;66538;53.150;18.160;2023-12-28T12:25:26;14.70;;;6.00;;
77453;SDS011;66538;53.150;18.160;2023-12-28T12:27:55;10.70;;;5.10;;
77453;SDS011;66538;53.150;18.160;2023-12-28T12:30:21;10.80;;;4.70;;
77453;SDS011;66538;53.150;18.160;2023-12-28T12:32:48;8.10;;;4.30;;
77453;SDS011;66538;53.150;18.160;2023-12-28T12:35:15;9.70;;;4.20;;
77453;SDS011;66538;53.150;18.160;2023-12-28T12:37:42;6.80;;;2.60;;
77453;SDS011;66538;53.150;18.160;2023-12-28T12:40:09;7.00;;;3.70;;
77453;SDS011;66538;53.150;18.160;2023-12-28T12:42:36;9.40;;;4.00;;
77453;SDS011;66538;53.150;18.160;2023-12-28T12:45:04;6.60;;;3.30;;
77453;SDS011;66538;53.150;18.160;2023-12-28T12:47:32;5.60;;;3.20;;
77453;SDS011;66538;53.150;18.160;2023-12-28T12:50:00;7.90;;;3.10;;
77453;SDS011;66538;53.150;18.160;2023-12-28T12:52:27;6.00;;;2.20;;
77453;SDS011;66538;53.150;18.160;2023-12-28T12:54:58;6.00;;;2.50;;
77453;SDS011;66538;53.150;18.160;2023-12-28T12:57:25;6.70;;;2.90;;
77453;SDS011;66538;53.150;18.160;2023-12-28T12:59:53;4.70;;;2.50;;
77453;SDS011;66538;53.150;18.160;2023-12-28T13:02:22;5.10;;;2.40;;
77453;SDS011;66538;53.150;18.160;2023-12-28T13:04:53;5.80;;;2.50;;
77453;SDS011;66538;53.150;18.160;2023-12-28T13:07:21;5.80;;;2.70;;
77453;SDS011;66538;53.150;18.160;2023-12-28T13:09:48;7.00;;;3.10;;
77453;SDS011;66538;53.150;18.160;2023-12-28T13:12:14;6.20;;;2.90;;
77453;SDS011;66538;53.150;18.160;2023-12-28T13:14:41;6.00;;;2.70;;
77453;SDS011;66538;53.150;18.160;2023-12-28T13:17:08;7.00;;;2.80;;
77453;SDS011;66538;53.150;18.160;2023-12-28T13:19:35;6.90;;;3.40;;
77453;SDS011;66538;53.150;18.160;2023-12-28T13:22:01;5.90;;;3.10;;
77453;SDS011;66538;53.150;18.160;2023-12-28T13:24:28;7.60;;;3.10;;
77453;SDS011;66538;53.150;18.160;2023-12-28T13:26:55;5.10;;;2.30;;
77453;SDS011;66538;53.150;18.160;2023-12-28T13:29:21;6.00;;;2.60;;
77453;SDS011;66538;53.150;18.160;2023-12-28T13:31:48;6.80;;;3.00;;
77453;SDS011;66538;53.150;18.160;2023-12-28T13:34:16;7.10;;;4.20;;
77453;SDS011;66538;53.150;18.160;2023-12-28T13:36:45;8.30;;;5.60;;
77453;SDS011;66538;53.150;18.160;2023-12-28T13:39:12;9.40;;;4.00;;
77453;SDS011;66538;53.150;18.160;2023-12-28T13:41:41;11.50;;;5.00;;
77453;SDS011;66538;53.150;18.160;2023-12-28T13:44:07;9.60;;;4.10;;
77453;SDS011;66538;53.150;18.160;2023-12-28T13:46:38;10.70;;;4.50;;
77453;SDS011;66538;53.150;18.160;2023-12-28T13:49:05;15.90;;;6.20;;
77453;SDS011;66538;53.150;18.160;2023-12-28T13:51:34;14.70;;;6.80;;
77453;SDS011;66538;53.150;18.160;2023-12-28T13:54:01;12.80;;;5.80;;
77453;SDS011;66538;53.150;18.160;2023-12-28T13:56:28;8.20;;;3.70;;
77453;SDS011;66538;53.150;18.160;2023-12-28T13:58:55;11.10;;;4.80;;
77453;SDS011;66538;53.150;18.160;2023-12-28T14:01:21;8.90;;;4.50;;
77453;SDS011;66538;53.150;18.160;2023-12-28T14:03:48;9.20;;;3.90;;
77453;SDS011;66538;53.150;18.160;2023-12-28T14:06:17;6.50;;;2.80;;
77453;SDS011;66538;53.150;18.160;2023-12-28T14:08:45;7.50;;;3.50;;
77453;SDS011;66538;53.150;18.160;2023-12-28T14:11:12;8.10;;;4.00;;
77453;SDS011;66538;53.150;18.160;2023-12-28T14:13:38;8.50;;;3.80;;
77453;SDS011;66538;53.150;18.160;2023-12-28T14:16:05;8.50;;;3.30;;
77453;SDS011;66538;53.150;18.160;2023-12-28T14:18:32;8.00;;;3.30;;
77453;SDS011;66538;53.150;18.160;2023-12-28T14:20:58;10.40;;;3.50;;
77453;SDS011;66538;53.150;18.160;2023-12-28T14:23:25;7.50;;;3.70;;
77453;SDS011;66538;53.150;18.160;2023-12-28T14:25:52;7.20;;;2.90;;
77453;SDS011;66538;53.150;18.160;2023-12-28T14:28:22;6.50;;;2.70;;